createdAt,value
2018-10-16T00:01:24.104Z,7.93
2018-10-16T00:03:52.320Z,6.30
2018-10-16T00:06:20.657Z,6.30
2018-10-16T00:08:48.816Z,8.23
2018-10-16T00:11:17.066Z,7.33
2018-10-16T00:13:45.242Z,7.97
2018-10-16T00:16:13.450Z,7.03
2018-10-16T00:18:41.636Z,7.78
2018-10-16T00:21:09.791Z,12.03
2018-10-16T00:23:37.925Z,8.27
2018-10-16T00:26:06.342Z,6.40
2018-10-16T00:28:34.620Z,6.67
2018-10-16T00:31:02.780Z,7.10
2018-10-16T00:33:30.935Z,7.17
2018-10-16T00:35:59.139Z,8.78
2018-10-16T00:38:27.436Z,7.37
2018-10-16T00:40:55.635Z,7.70
2018-10-16T00:43:23.784Z,8.70
2018-10-16T00:45:51.973Z,7.87
2018-10-16T00:48:20.135Z,7.17
2018-10-16T00:50:48.300Z,7.27
2018-10-16T00:53:16.473Z,7.23
2018-10-16T00:55:44.763Z,6.87
2018-10-16T00:58:12.926Z,7.57
2018-10-16T01:00:41.257Z,7.30
2018-10-16T01:03:09.404Z,7.57
2018-10-16T01:05:37.733Z,7.60
2018-10-16T01:08:05.940Z,6.83
2018-10-16T01:10:34.088Z,7.15
2018-10-16T01:13:02.231Z,7.40
2018-10-16T01:15:30.439Z,8.30
2018-10-16T01:17:58.716Z,6.90
2018-10-16T01:20:26.843Z,8.30
2018-10-16T01:22:54.997Z,7.40
2018-10-16T01:25:23.164Z,7.23
2018-10-16T01:27:51.619Z,7.50
2018-10-16T01:30:19.864Z,7.23
2018-10-16T01:32:48.055Z,7.57
2018-10-16T01:35:16.171Z,7.07
2018-10-16T01:37:44.351Z,7.77
2018-10-16T01:40:12.543Z,7.93
2018-10-16T01:42:40.701Z,7.90
2018-10-16T01:45:09.552Z,7.23
2018-10-16T01:47:37.679Z,8.03
2018-10-16T01:50:06.168Z,7.00
2018-10-16T01:52:34.515Z,8.48
2018-10-16T01:55:02.733Z,7.20
2018-10-16T01:57:31.100Z,7.37
2018-10-16T01:59:59.676Z,7.40
2018-10-16T02:02:27.953Z,8.60
2018-10-16T02:04:56.129Z,9.10
2018-10-16T02:07:24.335Z,8.90
2018-10-16T02:09:52.488Z,7.80
2018-10-16T02:12:20.730Z,7.57
2018-10-16T02:14:48.940Z,8.73
2018-10-16T02:17:17.033Z,8.85
2018-10-16T02:19:45.267Z,9.90
2018-10-16T02:22:13.403Z,9.77
2018-10-16T02:24:41.585Z,9.37
2018-10-16T02:27:09.790Z,10.10
2018-10-16T02:29:37.924Z,7.93
2018-10-16T02:32:06.523Z,7.70
2018-10-16T02:34:34.728Z,8.50
2018-10-16T02:37:02.895Z,6.77
2018-10-16T02:39:31.063Z,7.70
2018-10-16T02:41:59.264Z,7.73
2018-10-16T02:44:27.584Z,7.33
2018-10-16T02:46:55.787Z,7.53
2018-10-16T02:49:23.939Z,7.43
2018-10-16T02:51:52.143Z,7.60
2018-10-16T02:54:20.333Z,7.90
2018-10-16T02:56:48.546Z,8.70
2018-10-16T02:59:16.672Z,7.77
2018-10-16T03:01:44.842Z,9.00
2018-10-16T03:04:13.084Z,7.93
2018-10-16T03:06:41.227Z,8.10
2018-10-16T03:09:09.919Z,7.57
2018-10-16T03:11:38.106Z,8.30
2018-10-16T03:14:06.401Z,7.83
2018-10-16T03:16:34.631Z,7.93
2018-10-16T03:19:02.804Z,7.40
2018-10-16T03:21:31.013Z,8.70
2018-10-16T03:23:59.185Z,8.77
2018-10-16T03:26:27.316Z,8.50
2018-10-16T03:28:55.448Z,7.57
2018-10-16T03:31:23.751Z,8.10
2018-10-16T03:33:51.955Z,7.47
2018-10-16T03:36:20.121Z,8.20
2018-10-16T03:38:48.397Z,7.10
2018-10-16T03:41:16.585Z,9.43
2018-10-16T03:43:44.896Z,7.60
2018-10-16T03:46:13.095Z,8.27
2018-10-16T03:48:41.348Z,9.07
2018-10-16T03:51:09.545Z,8.00
2018-10-16T03:53:37.793Z,7.00
2018-10-16T03:56:06.097Z,6.97
2018-10-16T03:58:34.221Z,7.50
2018-10-16T04:01:03.495Z,7.12
2018-10-16T04:03:31.699Z,8.20
2018-10-16T04:05:59.940Z,7.83
2018-10-16T04:08:28.159Z,6.43
2018-10-16T04:10:56.552Z,7.80
2018-10-16T04:13:24.860Z,8.07
2018-10-16T04:15:53.019Z,8.77
2018-10-16T04:18:21.248Z,9.43
2018-10-16T04:20:49.411Z,8.60
2018-10-16T04:23:17.698Z,9.03
2018-10-16T04:25:46.061Z,10.40
2018-10-16T04:28:14.275Z,8.00
2018-10-16T04:30:42.409Z,8.67
2018-10-16T04:33:10.632Z,8.27
2018-10-16T04:35:38.821Z,7.90
2018-10-16T04:38:07.140Z,7.20
2018-10-16T04:40:35.339Z,8.40
2018-10-16T04:43:03.622Z,7.27
2018-10-16T04:45:31.784Z,7.90
2018-10-16T04:47:59.907Z,8.17
2018-10-16T04:50:28.065Z,7.70
2018-10-16T04:52:56.238Z,7.47
2018-10-16T04:55:24.554Z,8.63
2018-10-16T04:57:53.121Z,8.03
2018-10-16T05:00:21.340Z,8.57
2018-10-16T05:02:49.496Z,8.47
2018-10-16T05:05:24.799Z,6.83
2018-10-16T05:07:53.096Z,8.77
2018-10-16T05:10:21.909Z,8.70
2018-10-16T05:12:50.296Z,7.80
2018-10-16T05:15:26.867Z,8.07
2018-10-16T05:17:55.470Z,7.20
2018-10-16T05:20:23.740Z,8.93
2018-10-16T05:22:52.000Z,8.33
2018-10-16T05:25:20.422Z,8.37
2018-10-16T05:27:48.729Z,10.00
2018-10-16T05:30:17.195Z,8.43
2018-10-16T05:32:45.435Z,9.03
2018-10-16T05:35:13.621Z,7.70
2018-10-16T05:37:42.247Z,8.50
2018-10-16T05:40:11.381Z,7.83
2018-10-16T05:42:40.106Z,8.07
2018-10-16T05:45:09.797Z,7.70
2018-10-16T05:47:38.324Z,9.23
2018-10-16T05:50:07.612Z,8.05
2018-10-16T05:52:35.812Z,8.75
2018-10-16T05:55:04.091Z,8.40
2018-10-16T05:57:32.240Z,8.77
2018-10-16T06:01:03.712Z,9.90
2018-10-16T06:03:31.992Z,8.43
2018-10-16T06:06:00.169Z,9.07
2018-10-16T06:08:28.401Z,8.47
2018-10-16T06:10:56.587Z,8.77
2018-10-16T06:13:24.945Z,8.70
2018-10-16T06:15:53.279Z,8.57
2018-10-16T06:18:21.513Z,9.38
2018-10-16T06:20:49.758Z,9.50
2018-10-16T06:23:17.900Z,11.00
2018-10-16T06:25:46.043Z,9.80
2018-10-16T06:28:17.183Z,9.20
2018-10-16T06:30:45.433Z,10.10
2018-10-16T06:33:14.294Z,11.27
2018-10-16T06:35:42.420Z,9.37
2018-10-16T06:38:10.567Z,10.27
2018-10-16T06:40:38.911Z,9.37
2018-10-16T06:43:07.172Z,9.75
2018-10-16T06:45:35.532Z,8.28
2018-10-16T06:48:04.048Z,8.70
2018-10-16T06:50:32.036Z,10.23
2018-10-16T06:53:00.227Z,10.57
2018-10-16T06:55:28.400Z,10.37
2018-10-16T06:57:56.584Z,11.00
2018-10-16T07:00:24.773Z,12.28
2018-10-16T07:02:52.876Z,10.15
2018-10-16T07:05:21.249Z,12.03
2018-10-16T07:07:49.540Z,10.37
2018-10-16T07:10:17.766Z,12.63
2018-10-16T07:12:45.907Z,11.50
2018-10-16T07:15:14.189Z,10.60
2018-10-16T07:20:17.143Z,12.35
2018-10-16T07:22:45.340Z,12.60
2018-10-16T07:25:13.483Z,12.47
2018-10-16T07:27:41.647Z,13.15
2018-10-16T07:30:13.271Z,12.33
2018-10-16T07:32:41.372Z,13.93
2018-10-16T07:35:10.363Z,11.70
2018-10-16T07:37:39.503Z,12.30
2018-10-16T07:40:08.678Z,13.10
2018-10-16T07:42:36.835Z,15.63
2018-10-16T07:45:05.600Z,13.90
2018-10-16T07:47:33.829Z,11.70
2018-10-16T07:50:02.046Z,12.80
2018-10-16T07:52:30.220Z,12.83
2018-10-16T07:54:58.496Z,12.70
2018-10-16T07:57:26.724Z,11.88
2018-10-16T07:59:55.059Z,12.30
2018-10-16T08:02:23.339Z,12.20
2018-10-16T08:04:51.719Z,10.27
2018-10-16T08:07:19.962Z,10.93
2018-10-16T08:09:48.184Z,9.28
2018-10-16T08:12:16.416Z,10.53
2018-10-16T08:14:44.737Z,10.13
2018-10-16T08:17:13.031Z,10.40
2018-10-16T08:19:41.564Z,10.32
2018-10-16T08:22:09.747Z,11.17
2018-10-16T08:24:37.946Z,10.57
2018-10-16T08:27:06.113Z,9.93
2018-10-16T08:29:34.418Z,10.53
2018-10-16T08:32:02.725Z,11.77
2018-10-16T08:34:30.862Z,9.85
2018-10-16T08:36:59.316Z,9.53
2018-10-16T08:39:33.469Z,8.93
2018-10-16T08:44:15.874Z,10.90
2018-10-16T08:46:55.457Z,11.13
2018-10-16T08:49:35.003Z,10.80
2018-10-16T08:52:03.299Z,11.23
2018-10-16T08:54:31.572Z,10.07
2018-10-16T08:56:59.839Z,12.73
2018-10-16T08:59:28.091Z,10.20
2018-10-16T09:01:56.504Z,12.20
2018-10-16T09:04:24.692Z,11.83
2018-10-16T09:06:52.898Z,13.50
2018-10-16T09:09:21.073Z,13.48
2018-10-16T09:11:49.627Z,11.27
2018-10-16T09:14:18.166Z,9.93
2018-10-16T09:16:46.436Z,10.88
2018-10-16T09:19:14.743Z,10.97
2018-10-16T09:21:43.639Z,11.75
2018-10-16T09:24:11.794Z,11.63
2018-10-16T09:26:39.993Z,11.90
2018-10-16T09:29:08.212Z,9.77
2018-10-16T09:31:36.490Z,10.77
2018-10-16T09:34:04.635Z,11.07
2018-10-16T09:36:32.839Z,10.50
2018-10-16T09:39:01.221Z,11.00
2018-10-16T09:41:29.629Z,8.73
2018-10-16T09:43:57.914Z,8.65
2018-10-16T09:46:26.307Z,10.30
2018-10-16T09:48:54.642Z,9.03
2018-10-16T09:51:22.882Z,8.73
2018-10-16T09:53:51.059Z,8.57
2018-10-16T09:56:19.358Z,8.07
2018-10-16T09:58:47.655Z,7.90
2018-10-16T10:01:21.073Z,9.83
2018-10-16T10:03:49.236Z,7.37
2018-10-16T10:06:17.535Z,6.03
2018-10-16T10:08:45.665Z,8.60
2018-10-16T10:11:14.045Z,8.70
2018-10-16T10:13:42.539Z,7.70
2018-10-16T10:16:10.732Z,8.83
2018-10-16T10:18:39.217Z,8.47
2018-10-16T10:21:07.687Z,9.10
2018-10-16T10:23:35.997Z,8.73
2018-10-16T10:26:04.365Z,7.90
2018-10-16T10:28:32.736Z,8.87
2018-10-16T10:31:01.133Z,8.73
2018-10-16T10:33:29.443Z,8.33
2018-10-16T10:35:57.620Z,8.90
2018-10-16T10:38:26.058Z,8.55
2018-10-16T10:40:54.469Z,8.20
2018-10-16T10:43:22.857Z,9.10
2018-10-16T10:45:51.340Z,8.68
2018-10-16T10:48:19.750Z,7.87
2018-10-16T10:50:48.354Z,7.60
2018-10-16T10:53:17.358Z,7.00
2018-10-16T10:55:45.754Z,8.50
2018-10-16T10:58:14.043Z,9.17
2018-10-16T11:00:42.483Z,8.88
2018-10-16T11:03:10.921Z,7.30
2018-10-16T11:05:39.293Z,8.60
2018-10-16T11:08:07.445Z,6.25
2018-10-16T11:10:35.768Z,7.60
2018-10-16T11:13:04.063Z,6.00
2018-10-16T11:15:32.457Z,8.00
2018-10-16T11:18:00.915Z,8.87
2018-10-16T11:20:29.256Z,6.00
2018-10-16T11:22:57.736Z,6.30
2018-10-16T11:25:25.948Z,7.70
2018-10-16T11:27:54.188Z,6.07
2018-10-16T11:30:22.785Z,6.00
2018-10-16T11:32:51.202Z,4.97
2018-10-16T11:35:19.600Z,5.20
2018-10-16T11:37:48.000Z,5.67
2018-10-16T11:40:16.626Z,6.37
2018-10-16T11:42:44.771Z,5.30
2018-10-16T11:45:13.141Z,4.90
2018-10-16T11:47:41.475Z,5.30
2018-10-16T11:50:10.911Z,5.57
2018-10-16T11:52:45.677Z,4.40
2018-10-16T11:55:13.979Z,4.70
2018-10-16T11:57:42.491Z,5.00
2018-10-16T12:00:13.709Z,5.10
2018-10-16T12:02:42.366Z,5.72
2018-10-16T12:05:11.139Z,5.10
2018-10-16T12:07:39.567Z,5.13
2018-10-16T12:10:08.047Z,4.83
2018-10-16T12:12:36.490Z,5.13
2018-10-16T12:15:04.972Z,5.83
2018-10-16T12:17:38.528Z,5.50
2018-10-16T12:20:11.240Z,4.77
2018-10-16T12:22:39.825Z,5.93
2018-10-16T12:25:08.479Z,4.97
2018-10-16T12:27:36.994Z,6.33
2018-10-16T12:30:05.967Z,4.42
2018-10-16T12:32:34.205Z,4.17
2018-10-16T12:35:02.506Z,4.00
2018-10-16T12:37:30.669Z,4.20
2018-10-16T12:39:58.994Z,5.20
2018-10-16T12:42:27.572Z,5.07
2018-10-16T12:44:56.003Z,4.23
2018-10-16T12:47:24.432Z,4.60
2018-10-16T12:49:52.716Z,5.13
2018-10-16T12:52:21.288Z,4.53
2018-10-16T12:54:49.416Z,5.10
2018-10-16T12:57:17.788Z,4.70
2018-10-16T12:59:46.100Z,4.50
2018-10-16T13:02:14.379Z,4.60
2018-10-16T13:04:42.566Z,4.03
2018-10-16T13:07:15.116Z,4.90
2018-10-16T13:09:43.444Z,4.03
2018-10-16T13:12:12.145Z,3.23
2018-10-16T13:14:40.576Z,3.92
2018-10-16T13:17:09.087Z,4.10
2018-10-16T13:19:37.796Z,3.60
2018-10-16T13:22:06.297Z,3.53
2018-10-16T13:24:34.765Z,3.63
2018-10-16T13:27:03.242Z,4.17
2018-10-16T13:29:31.879Z,3.00
2018-10-16T13:32:00.327Z,3.02
2018-10-16T13:34:28.790Z,3.37
2018-10-16T13:36:57.290Z,3.43
2018-10-16T13:39:25.727Z,3.97
2018-10-16T13:41:54.827Z,3.75
2018-10-16T13:44:23.364Z,3.93
2018-10-16T13:46:51.774Z,3.00
2018-10-16T13:49:20.670Z,3.50
2018-10-16T13:51:49.102Z,3.37
2018-10-16T13:54:17.617Z,3.33
2018-10-16T13:56:45.980Z,3.87
2018-10-16T13:59:14.513Z,3.72
2018-10-16T14:01:43.079Z,4.33
2018-10-16T14:04:11.589Z,3.57
2018-10-16T14:06:40.096Z,3.70
2018-10-16T14:09:08.783Z,3.77
2018-10-16T14:11:37.274Z,3.57
2018-10-16T14:14:05.905Z,3.23
2018-10-16T14:16:34.198Z,3.42
2018-10-16T14:19:02.507Z,4.50
2018-10-16T14:21:30.904Z,4.40
2018-10-16T14:23:59.389Z,4.10
2018-10-16T14:26:27.877Z,3.90
2018-10-16T14:28:56.656Z,3.60
2018-10-16T14:31:25.046Z,3.85
2018-10-16T14:33:53.523Z,3.93
2018-10-16T14:36:21.639Z,3.50
2018-10-16T14:38:50.081Z,3.90
2018-10-16T14:41:18.726Z,3.92
2018-10-16T14:43:47.123Z,3.03
2018-10-16T14:46:15.440Z,4.10
2018-10-16T14:48:43.698Z,4.10
2018-10-16T14:51:11.903Z,4.00
2018-10-16T14:53:40.254Z,3.87
2018-10-16T14:56:08.624Z,3.12
2018-10-16T14:58:37.076Z,3.87
2018-10-16T15:01:05.724Z,4.50
2018-10-16T15:03:33.963Z,4.10
2018-10-16T15:06:02.248Z,4.00
2018-10-16T15:08:31.451Z,4.20
2018-10-16T15:10:59.920Z,3.50
2018-10-16T15:13:28.422Z,3.40
2018-10-16T15:15:57.017Z,3.30
2018-10-16T15:18:25.332Z,3.60
2018-10-16T15:20:53.790Z,3.57
2018-10-16T15:23:22.262Z,4.83
2018-10-16T15:25:50.447Z,3.80
2018-10-16T15:28:18.768Z,4.43
2018-10-16T15:30:47.241Z,4.60
2018-10-16T15:33:15.603Z,3.52
2018-10-16T15:35:44.222Z,3.67
2018-10-16T15:38:12.636Z,3.50
2018-10-16T15:40:40.944Z,3.50
2018-10-16T15:43:09.379Z,3.97
2018-10-16T15:45:37.726Z,4.00
2018-10-16T15:48:06.329Z,4.40
2018-10-16T15:50:34.638Z,3.67
2018-10-16T15:53:02.766Z,3.80
2018-10-16T15:55:31.288Z,4.25
2018-10-16T15:57:59.794Z,4.23
2018-10-16T16:00:28.127Z,3.60
2018-10-16T16:02:56.248Z,3.55
2018-10-16T16:05:24.740Z,3.57
2018-10-16T16:07:53.226Z,4.17
2018-10-16T16:10:21.670Z,3.33
2018-10-16T16:12:50.144Z,4.50
2018-10-16T16:15:18.380Z,4.60
2018-10-16T16:17:46.890Z,4.28
2018-10-16T16:20:16.320Z,3.17
2018-10-16T16:22:45.105Z,3.97
2018-10-16T16:25:14.568Z,3.93
2018-10-16T16:27:43.034Z,3.50
2018-10-16T16:30:13.905Z,4.40
2018-10-16T16:32:41.998Z,3.90
2018-10-16T16:35:10.575Z,4.00
2018-10-16T16:37:38.929Z,4.40
2018-10-16T16:40:09.216Z,3.52
2018-10-16T16:42:37.550Z,4.20
2018-10-16T16:45:06.702Z,4.07
2018-10-16T16:47:34.944Z,4.70
2018-10-16T16:50:03.761Z,4.10
2018-10-16T16:52:32.098Z,4.10
2018-10-16T16:55:00.945Z,4.58
2018-10-16T16:57:29.095Z,4.97
2018-10-16T16:59:57.480Z,4.03
2018-10-16T17:02:25.753Z,4.97
2018-10-16T17:04:54.305Z,4.10
2018-10-16T17:07:22.795Z,5.20
2018-10-16T17:09:51.225Z,5.35
2018-10-16T17:12:19.572Z,5.03
2018-10-16T17:14:47.979Z,5.70
2018-10-16T17:17:16.182Z,4.70
2018-10-16T17:19:44.451Z,4.63
2018-10-16T17:22:12.912Z,4.37
2018-10-16T17:24:41.087Z,4.87
2018-10-16T17:27:09.491Z,5.10
2018-10-16T17:29:37.805Z,4.20
2018-10-16T17:32:05.936Z,5.93
2018-10-16T17:34:34.280Z,5.27
2018-10-16T17:37:02.655Z,5.27
2018-10-16T17:44:24.872Z,4.70
2018-10-16T17:46:53.004Z,4.30
2018-10-16T17:49:21.144Z,5.60
2018-10-16T17:51:49.280Z,5.70
2018-10-16T17:54:17.518Z,5.00
2018-10-16T17:56:45.797Z,5.00
2018-10-16T17:59:13.981Z,4.87
2018-10-16T18:01:42.433Z,3.70
2018-10-16T18:04:10.619Z,5.93
2018-10-16T18:06:39.076Z,5.27
2018-10-16T18:09:07.980Z,4.40
2018-10-16T18:11:36.219Z,5.07
2018-10-16T18:14:04.832Z,4.40
2018-10-16T18:16:33.164Z,4.20
2018-10-16T18:19:01.405Z,4.00
2018-10-16T18:21:29.803Z,4.90
2018-10-16T18:23:58.156Z,5.15
2018-10-16T18:26:26.331Z,6.27
2018-10-16T18:28:54.489Z,6.57
2018-10-16T18:31:22.752Z,6.47
2018-10-16T18:33:50.944Z,6.30
2018-10-16T18:36:19.191Z,5.90
2018-10-16T18:38:47.572Z,5.80
2018-10-16T18:41:15.809Z,5.50
2018-10-16T18:43:44.197Z,5.47
2018-10-16T18:46:12.389Z,6.80
2018-10-16T18:48:40.652Z,5.63
2018-10-16T18:51:09.693Z,6.22
2018-10-16T18:53:37.784Z,6.83
2018-10-16T18:56:05.959Z,5.58
2018-10-16T18:58:34.378Z,4.87
2018-10-16T19:01:02.624Z,6.10
2018-10-16T19:03:30.799Z,6.23
2018-10-16T19:05:58.958Z,7.37
2018-10-16T19:08:27.252Z,6.23
2018-10-16T19:10:55.432Z,4.80
2018-10-16T19:13:23.657Z,5.23
2018-10-16T19:15:51.939Z,5.43
2018-10-16T19:18:20.111Z,6.80
2018-10-16T19:20:48.524Z,6.17
2018-10-16T19:23:17.002Z,5.33
2018-10-16T19:25:45.196Z,5.23
2018-10-16T19:28:13.376Z,6.17
2018-10-16T19:30:41.864Z,5.83
2018-10-16T19:33:10.104Z,4.80
2018-10-16T19:35:38.266Z,5.55
2018-10-16T19:38:06.636Z,6.93
2018-10-16T19:40:35.561Z,5.08
2018-10-16T19:43:03.773Z,6.13
2018-10-16T19:45:31.964Z,5.90
2018-10-16T19:48:00.089Z,5.37
2018-10-16T19:50:28.215Z,5.60
2018-10-16T19:52:56.459Z,6.53
2018-10-16T19:55:24.606Z,6.53
2018-10-16T19:57:52.872Z,5.33
2018-10-16T20:00:21.098Z,5.27
2018-10-16T20:02:49.333Z,6.23
2018-10-16T20:05:17.514Z,4.70
2018-10-16T20:07:45.883Z,6.20
2018-10-16T20:10:14.301Z,6.00
2018-10-16T20:12:42.659Z,6.17
2018-10-16T20:15:11.932Z,5.37
2018-10-16T20:17:40.194Z,6.57
2018-10-16T20:20:09.130Z,6.30
2018-10-16T20:22:37.553Z,5.67
2018-10-16T20:25:06.511Z,5.95
2018-10-16T20:27:34.915Z,7.37
2018-10-16T20:30:03.172Z,6.47
2018-10-16T20:32:31.534Z,6.03
2018-10-16T20:35:02.704Z,7.13
2018-10-16T20:37:31.076Z,6.73
2018-10-16T20:39:59.468Z,6.83
2018-10-16T20:42:27.872Z,6.43
2018-10-16T20:44:56.201Z,6.93
2018-10-16T20:47:24.565Z,6.67
2018-10-16T20:49:52.687Z,7.50
2018-10-16T20:52:20.828Z,7.57
2018-10-16T20:54:49.054Z,6.93
2018-10-16T20:57:17.366Z,7.57
2018-10-16T20:59:46.537Z,7.63
2018-10-16T21:02:14.743Z,7.70
2018-10-16T21:04:42.919Z,7.93
2018-10-16T21:07:11.057Z,8.17
2018-10-16T21:09:39.474Z,7.40
2018-10-16T21:12:08.309Z,7.55
2018-10-16T21:14:36.760Z,7.30
2018-10-16T21:17:05.076Z,8.30
2018-10-16T21:19:33.450Z,7.40
2018-10-16T21:22:01.747Z,7.13
2018-10-16T21:24:29.927Z,7.27
2018-10-16T21:27:07.058Z,8.20
2018-10-16T21:29:35.577Z,7.47
2018-10-16T21:32:04.041Z,8.10
2018-10-16T21:34:32.187Z,6.73
2018-10-16T21:37:00.491Z,8.10
2018-10-16T21:39:28.659Z,8.00
2018-10-16T21:41:56.787Z,7.92
2018-10-16T21:44:25.009Z,7.67
2018-10-16T21:46:53.588Z,7.67
2018-10-16T21:49:22.468Z,7.53
2018-10-16T21:51:50.947Z,7.00
2018-10-16T21:54:19.127Z,7.65
2018-10-16T21:56:47.435Z,7.47
2018-10-16T22:02:49.556Z,8.13
2018-10-16T22:05:24.516Z,8.57
2018-10-16T22:07:54.453Z,8.40
2018-10-16T22:10:23.031Z,8.73
2018-10-16T22:12:51.497Z,7.53
2018-10-16T22:15:20.441Z,7.53
2018-10-16T22:17:48.907Z,7.50
2018-10-16T22:20:17.075Z,8.97
2018-10-16T22:22:46.001Z,8.18
2018-10-16T22:25:14.985Z,8.73
2018-10-16T22:27:43.260Z,9.30
2018-10-16T22:30:11.459Z,8.17
2018-10-16T22:32:40.515Z,7.50
2018-10-16T22:35:10.108Z,8.27
2018-10-16T22:37:38.391Z,8.40
2018-10-16T22:40:07.591Z,7.33
2018-10-16T22:42:36.206Z,7.87
2018-10-16T22:45:04.625Z,8.17
2018-10-16T22:47:32.800Z,7.60
2018-10-16T22:50:00.992Z,7.90
2018-10-16T22:52:29.136Z,8.67
2018-10-16T22:54:57.288Z,8.80
2018-10-16T22:57:25.438Z,9.13
2018-10-16T22:59:53.662Z,8.67
2018-10-16T23:02:21.940Z,8.77
2018-10-16T23:04:50.677Z,9.60
2018-10-16T23:07:18.920Z,8.10
2018-10-16T23:09:47.247Z,11.03
2018-10-16T23:12:15.503Z,9.10
2018-10-16T23:14:43.711Z,9.83
2018-10-16T23:17:12.028Z,9.40
2018-10-16T23:19:40.285Z,8.77
2018-10-16T23:22:08.568Z,7.50
2018-10-16T23:24:36.732Z,7.70
2018-10-16T23:27:05.441Z,8.80
2018-10-16T23:29:33.611Z,8.73
2018-10-16T23:32:02.036Z,7.83
2018-10-16T23:34:30.404Z,9.37
2018-10-16T23:36:58.636Z,8.90
2018-10-16T23:39:26.782Z,9.07
2018-10-16T23:41:55.003Z,9.93
2018-10-16T23:44:23.159Z,9.13
2018-10-16T23:46:51.456Z,8.60
2018-10-16T23:49:19.629Z,9.23
2018-10-16T23:51:47.817Z,7.83
2018-10-16T23:54:15.951Z,9.20
2018-10-16T23:56:44.232Z,9.30
2018-10-16T23:59:13.533Z,8.15
